sensor_id;sensor_type;location;lat;lon;timestamp;temperature;humidity
40808;DHT22;26523;52.504;13.498;2023-02-15T00:01:37;3.30;99.90
40808;DHT22;26523;52.504;13.498;2023-02-15T00:04:03;3.20;99.90
40808;DHT22;26523;52.504;13.498;2023-02-15T00:06:29;3.10;99.90
40808;DHT22;26523;52.504;13.498;2023-02-15T00:08:55;3.00;99.90
40808;DHT22;26523;52.504;13.498;2023-02-15T00:11:21;2.90;99.90
40808;DHT22;26523;52.504;13.498;2023-02-15T00:14:16;2.90;99.90
40808;DHT22;26523;52.504;13.498;2023-02-15T00:16:43;2.80;99.90
40808;DHT22;26523;52.504;13.498;2023-02-15T00:19:10;2.70;99.90
40808;DHT22;26523;52.504;13.498;2023-02-15T00:21:37;2.70;99.90
40808;DHT22;26523;52.504;13.498;2023-02-15T00:24:05;2.50;99.90
40808;DHT22;26523;52.504;13.498;2023-02-15T00:26:31;2.50;99.90
40808;DHT22;26523;52.504;13.498;2023-02-15T00:28:57;2.40;99.90
40808;DHT22;26523;52.504;13.498;2023-02-15T00:31:30;2.30;99.90
40808;DHT22;26523;52.504;13.498;2023-02-15T00:34:02;2.30;99.90
40808;DHT22;26523;52.504;13.498;2023-02-15T00:36:28;2.20;99.90
40808;DHT22;26523;52.504;13.498;2023-02-15T00:38:53;2.20;99.90
40808;DHT22;26523;52.504;13.498;2023-02-15T00:41:19;2.10;99.90
40808;DHT22;26523;52.504;13.498;2023-02-15T00:43:45;2.10;99.90
40808;DHT22;26523;52.504;13.498;2023-02-15T00:46:10;2.10;99.90
40808;DHT22;26523;52.504;13.498;2023-02-15T00:48:36;2.10;99.90
40808;DHT22;26523;52.504;13.498;2023-02-15T00:51:02;2.00;99.90
40808;DHT22;26523;52.504;13.498;2023-02-15T00:53:28;2.00;99.90
40808;DHT22;26523;52.504;13.498;2023-02-15T00:55:54;1.90;99.90
40808;DHT22;26523;52.504;13.498;2023-02-15T00:58:20;1.90;99.90
40808;DHT22;26523;52.504;13.498;2023-02-15T01:00:47;1.80;99.90
40808;DHT22;26523;52.504;13.498;2023-02-15T01:03:14;1.80;99.90
40808;DHT22;26523;52.504;13.498;2023-02-15T01:05:40;1.70;99.90
40808;DHT22;26523;52.504;13.498;2023-02-15T01:08:06;1.70;99.90
40808;DHT22;26523;52.504;13.498;2023-02-15T01:10:34;1.70;99.90
40808;DHT22;26523;52.504;13.498;2023-02-15T01:13:00;1.70;99.90
40808;DHT22;26523;52.504;13.498;2023-02-15T01:15:26;1.70;99.90
40808;DHT22;26523;52.504;13.498;2023-02-15T01:17:52;1.70;99.90
40808;DHT22;26523;52.504;13.498;2023-02-15T01:20:24;1.60;99.90
40808;DHT22;26523;52.504;13.498;2023-02-15T01:22:51;1.60;99.90
40808;DHT22;26523;52.504;13.498;2023-02-15T01:25:18;1.60;99.90
40808;DHT22;26523;52.504;13.498;2023-02-15T01:27:45;1.60;99.90
40808;DHT22;26523;52.504;13.498;2023-02-15T01:30:12;1.60;99.90
40808;DHT22;26523;52.504;13.498;2023-02-15T01:32:38;1.60;99.90
40808;DHT22;26523;52.504;13.498;2023-02-15T01:35:04;1.50;99.90
40808;DHT22;26523;52.504;13.498;2023-02-15T01:37:30;1.50;99.90
40808;DHT22;26523;52.504;13.498;2023-02-15T01:39:57;1.50;99.90
40808;DHT22;26523;52.504;13.498;2023-02-15T01:42:26;1.30;99.90
40808;DHT22;26523;52.504;13.498;2023-02-15T01:44:56;1.30;99.90
40808;DHT22;26523;52.504;13.498;2023-02-15T01:50:12;1.20;99.90
40808;DHT22;26523;52.504;13.498;2023-02-15T01:52:46;1.20;99.90
40808;DHT22;26523;52.504;13.498;2023-02-15T01:55:14;1.10;99.90
40808;DHT22;26523;52.504;13.498;2023-02-15T01:57:42;1.10;99.90
40808;DHT22;26523;52.504;13.498;2023-02-15T02:00:09;1.10;99.90
40808;DHT22;26523;52.504;13.498;2023-02-15T02:02:35;1.10;99.90
40808;DHT22;26523;52.504;13.498;2023-02-15T02:05:03;1.10;99.90
40808;DHT22;26523;52.504;13.498;2023-02-15T02:07:35;1.10;99.90
40808;DHT22;26523;52.504;13.498;2023-02-15T02:10:04;1.20;99.90
40808;DHT22;26523;52.504;13.498;2023-02-15T02:12:30;1.20;99.90
40808;DHT22;26523;52.504;13.498;2023-02-15T02:14:56;1.20;99.90
40808;DHT22;26523;52.504;13.498;2023-02-15T02:20:43;1.10;99.90
40808;DHT22;26523;52.504;13.498;2023-02-15T02:28:54;1.00;99.90
40808;DHT22;26523;52.504;13.498;2023-02-15T02:31:43;1.00;99.90
40808;DHT22;26523;52.504;13.498;2023-02-15T02:34:29;0.90;99.90
40808;DHT22;26523;52.504;13.498;2023-02-15T02:42:38;0.80;99.90
40808;DHT22;26523;52.504;13.498;2023-02-15T02:50:25;0.80;99.90
40808;DHT22;26523;52.504;13.498;2023-02-15T02:52:53;0.80;99.90
40808;DHT22;26523;52.504;13.498;2023-02-15T02:55:38;0.80;99.90
40808;DHT22;26523;52.504;13.498;2023-02-15T02:58:18;0.70;99.90
40808;DHT22;26523;52.504;13.498;2023-02-15T03:00:57;0.70;99.90
40808;DHT22;26523;52.504;13.498;2023-02-15T03:03:51;0.70;99.90
40808;DHT22;26523;52.504;13.498;2023-02-15T03:06:39;0.60;99.90
40808;DHT22;26523;52.504;13.498;2023-02-15T03:09:36;0.50;99.90
40808;DHT22;26523;52.504;13.498;2023-02-15T03:12:20;0.50;99.90
40808;DHT22;26523;52.504;13.498;2023-02-15T03:14:50;0.40;99.90
40808;DHT22;26523;52.504;13.498;2023-02-15T03:17:19;0.40;99.90
40808;DHT22;26523;52.504;13.498;2023-02-15T03:19:49;0.40;99.90
40808;DHT22;26523;52.504;13.498;2023-02-15T03:22:24;0.40;99.90
40808;DHT22;26523;52.504;13.498;2023-02-15T03:25:12;0.40;99.90
40808;DHT22;26523;52.504;13.498;2023-02-15T03:27:46;0.40;99.90
40808;DHT22;26523;52.504;13.498;2023-02-15T03:30:13;0.30;99.90
40808;DHT22;26523;52.504;13.498;2023-02-15T03:32:41;0.20;99.90
40808;DHT22;26523;52.504;13.498;2023-02-15T03:35:09;0.10;99.90
40808;DHT22;26523;52.504;13.498;2023-02-15T03:37:46;0.10;99.90
40808;DHT22;26523;52.504;13.498;2023-02-15T03:41:00;0.00;99.90
40808;DHT22;26523;52.504;13.498;2023-02-15T03:43:40;0.10;99.90
40808;DHT22;26523;52.504;13.498;2023-02-15T03:46:31;0.00;99.90
40808;DHT22;26523;52.504;13.498;2023-02-15T03:49:12;-0.10;99.90
40808;DHT22;26523;52.504;13.498;2023-02-15T03:51:42;0.00;99.90
40808;DHT22;26523;52.504;13.498;2023-02-15T03:54:13;-0.10;99.90
40808;DHT22;26523;52.504;13.498;2023-02-15T03:57:01;-0.10;99.90
40808;DHT22;26523;52.504;13.498;2023-02-15T03:59:46;-0.10;99.90
40808;DHT22;26523;52.504;13.498;2023-02-15T04:05:33;-0.20;99.90
40808;DHT22;26523;52.504;13.498;2023-02-15T04:07:59;-0.30;99.90
40808;DHT22;26523;52.504;13.498;2023-02-15T04:10:25;-0.30;99.90
40808;DHT22;26523;52.504;13.498;2023-02-15T04:13:09;-0.40;99.90
40808;DHT22;26523;52.504;13.498;2023-02-15T04:15:35;-0.40;99.90
40808;DHT22;26523;52.504;13.498;2023-02-15T04:18:19;-0.50;99.90
40808;DHT22;26523;52.504;13.498;2023-02-15T04:20:46;-0.50;99.90
40808;DHT22;26523;52.504;13.498;2023-02-15T04:23:31;-0.50;99.90
40808;DHT22;26523;52.504;13.498;2023-02-15T04:26:15;-0.40;99.90
40808;DHT22;26523;52.504;13.498;2023-02-15T04:28:41;-0.50;99.90
40808;DHT22;26523;52.504;13.498;2023-02-15T04:31:07;-0.40;99.90
40808;DHT22;26523;52.504;13.498;2023-02-15T04:33:32;-0.60;99.90
40808;DHT22;26523;52.504;13.498;2023-02-15T04:35:58;-0.60;99.90
40808;DHT22;26523;52.504;13.498;2023-02-15T04:38:24;-0.50;99.90
40808;DHT22;26523;52.504;13.498;2023-02-15T04:40:51;-0.60;99.90
40808;DHT22;26523;52.504;13.498;2023-02-15T04:43:18;-0.70;99.90
40808;DHT22;26523;52.504;13.498;2023-02-15T04:45:50;-0.70;99.90
40808;DHT22;26523;52.504;13.498;2023-02-15T04:48:17;-0.70;99.90
40808;DHT22;26523;52.504;13.498;2023-02-15T04:50:44;-0.80;99.90
40808;DHT22;26523;52.504;13.498;2023-02-15T04:53:10;-0.70;99.90
40808;DHT22;26523;52.504;13.498;2023-02-15T04:55:36;-0.80;99.90
40808;DHT22;26523;52.504;13.498;2023-02-15T04:58:01;-0.80;99.90
40808;DHT22;26523;52.504;13.498;2023-02-15T05:00:27;-0.90;99.90
40808;DHT22;26523;52.504;13.498;2023-02-15T05:02:53;-0.90;99.90
40808;DHT22;26523;52.504;13.498;2023-02-15T05:05:18;-1.00;99.90
40808;DHT22;26523;52.504;13.498;2023-02-15T05:07:44;-1.10;99.90
40808;DHT22;26523;52.504;13.498;2023-02-15T05:10:10;-1.10;99.90
40808;DHT22;26523;52.504;13.498;2023-02-15T05:12:36;-1.00;99.90
40808;DHT22;26523;52.504;13.498;2023-02-15T05:15:01;-1.00;99.90
40808;DHT22;26523;52.504;13.498;2023-02-15T05:17:27;-1.10;99.90
40808;DHT22;26523;52.504;13.498;2023-02-15T05:19:53;-1.10;99.90
40808;DHT22;26523;52.504;13.498;2023-02-15T05:22:18;-1.10;99.90
40808;DHT22;26523;52.504;13.498;2023-02-15T05:24:44;-1.10;99.90
40808;DHT22;26523;52.504;13.498;2023-02-15T05:27:28;-1.10;99.90
40808;DHT22;26523;52.504;13.498;2023-02-15T05:32:39;-1.10;99.90
40808;DHT22;26523;52.504;13.498;2023-02-15T05:35:06;-1.10;99.90
40808;DHT22;26523;52.504;13.498;2023-02-15T05:37:33;-1.00;99.90
40808;DHT22;26523;52.504;13.498;2023-02-15T05:39:58;-1.00;99.90
40808;DHT22;26523;52.504;13.498;2023-02-15T05:42:24;-1.00;99.90
40808;DHT22;26523;52.504;13.498;2023-02-15T05:44:50;-0.80;99.90
40808;DHT22;26523;52.504;13.498;2023-02-15T05:47:15;-0.70;99.90
40808;DHT22;26523;52.504;13.498;2023-02-15T05:49:41;-0.40;99.90
40808;DHT22;26523;52.504;13.498;2023-02-15T05:52:06;-0.40;99.90
40808;DHT22;26523;52.504;13.498;2023-02-15T05:54:33;-0.40;99.90
40808;DHT22;26523;52.504;13.498;2023-02-15T05:56:59;-0.40;99.90
40808;DHT22;26523;52.504;13.498;2023-02-15T05:59:24;-0.30;99.90
40808;DHT22;26523;52.504;13.498;2023-02-15T06:01:50;-0.30;99.90
40808;DHT22;26523;52.504;13.498;2023-02-15T06:04:16;-0.30;99.90
40808;DHT22;26523;52.504;13.498;2023-02-15T06:06:41;-0.20;99.90
40808;DHT22;26523;52.504;13.498;2023-02-15T06:09:07;-0.20;99.90
40808;DHT22;26523;52.504;13.498;2023-02-15T06:11:32;-0.30;99.90
40808;DHT22;26523;52.504;13.498;2023-02-15T06:13:58;-0.30;99.90
40808;DHT22;26523;52.504;13.498;2023-02-15T06:16:24;-0.40;99.90
40808;DHT22;26523;52.504;13.498;2023-02-15T06:18:49;-0.40;99.90
40808;DHT22;26523;52.504;13.498;2023-02-15T06:21:15;-0.40;99.90
40808;DHT22;26523;52.504;13.498;2023-02-15T06:23:41;-0.30;99.90
40808;DHT22;26523;52.504;13.498;2023-02-15T06:26:07;-0.40;99.90
40808;DHT22;26523;52.504;13.498;2023-02-15T06:28:32;-0.40;99.90
40808;DHT22;26523;52.504;13.498;2023-02-15T06:30:58;-0.40;99.90
40808;DHT22;26523;52.504;13.498;2023-02-15T06:33:24;-0.50;99.90
40808;DHT22;26523;52.504;13.498;2023-02-15T06:35:49;-0.40;99.90
40808;DHT22;26523;52.504;13.498;2023-02-15T06:38:15;-0.40;99.90
40808;DHT22;26523;52.504;13.498;2023-02-15T06:40:41;-0.30;99.90
40808;DHT22;26523;52.504;13.498;2023-02-15T06:43:07;-0.30;99.90
40808;DHT22;26523;52.504;13.498;2023-02-15T06:45:33;-0.20;99.90
40808;DHT22;26523;52.504;13.498;2023-02-15T06:47:58;-0.20;99.90
40808;DHT22;26523;52.504;13.498;2023-02-15T06:50:24;-0.20;99.90
40808;DHT22;26523;52.504;13.498;2023-02-15T06:52:54;-0.20;99.90
40808;DHT22;26523;52.504;13.498;2023-02-15T06:55:20;-0.10;99.90
40808;DHT22;26523;52.504;13.498;2023-02-15T06:57:46;-0.10;99.90
40808;DHT22;26523;52.504;13.498;2023-02-15T07:00:12;0.00;99.90
40808;DHT22;26523;52.504;13.498;2023-02-15T07:02:38;0.00;99.90
40808;DHT22;26523;52.504;13.498;2023-02-15T07:05:03;0.00;99.90
40808;DHT22;26523;52.504;13.498;2023-02-15T07:07:30;0.10;99.90
40808;DHT22;26523;52.504;13.498;2023-02-15T07:09:56;0.10;99.90
40808;DHT22;26523;52.504;13.498;2023-02-15T07:12:21;0.10;99.90
40808;DHT22;26523;52.504;13.498;2023-02-15T07:15:05;0.10;99.90
40808;DHT22;26523;52.504;13.498;2023-02-15T07:17:33;0.10;99.90
40808;DHT22;26523;52.504;13.498;2023-02-15T07:19:59;0.20;99.90
40808;DHT22;26523;52.504;13.498;2023-02-15T07:22:24;0.20;99.90
40808;DHT22;26523;52.504;13.498;2023-02-15T07:24:50;0.20;99.90
40808;DHT22;26523;52.504;13.498;2023-02-15T07:27:20;0.30;99.90
40808;DHT22;26523;52.504;13.498;2023-02-15T07:29:46;0.30;99.90
40808;DHT22;26523;52.504;13.498;2023-02-15T07:32:12;0.30;99.90
40808;DHT22;26523;52.504;13.498;2023-02-15T07:34:37;0.30;99.90
40808;DHT22;26523;52.504;13.498;2023-02-15T07:37:03;0.40;99.90
40808;DHT22;26523;52.504;13.498;2023-02-15T07:39:30;0.50;99.90
40808;DHT22;26523;52.504;13.498;2023-02-15T07:41:55;0.50;99.90
40808;DHT22;26523;52.504;13.498;2023-02-15T07:44:21;0.60;99.90
40808;DHT22;26523;52.504;13.498;2023-02-15T07:46:46;0.60;99.90
40808;DHT22;26523;52.504;13.498;2023-02-15T07:49:12;0.70;99.90
40808;DHT22;26523;52.504;13.498;2023-02-15T07:51:38;0.80;99.90
40808;DHT22;26523;52.504;13.498;2023-02-15T07:54:03;0.90;99.90
40808;DHT22;26523;52.504;13.498;2023-02-15T07:56:29;0.80;99.90
40808;DHT22;26523;52.504;13.498;2023-02-15T07:58:55;0.80;99.90
40808;DHT22;26523;52.504;13.498;2023-02-15T08:01:29;0.80;99.90
40808;DHT22;26523;52.504;13.498;2023-02-15T08:03:55;0.90;99.90
40808;DHT22;26523;52.504;13.498;2023-02-15T08:06:23;0.90;99.90
40808;DHT22;26523;52.504;13.498;2023-02-15T08:08:49;0.90;99.90
40808;DHT22;26523;52.504;13.498;2023-02-15T08:11:18;0.90;99.90
40808;DHT22;26523;52.504;13.498;2023-02-15T08:14:19;0.90;99.90
40808;DHT22;26523;52.504;13.498;2023-02-15T08:16:53;0.90;99.90
40808;DHT22;26523;52.504;13.498;2023-02-15T08:21:55;1.00;99.90
40808;DHT22;26523;52.504;13.498;2023-02-15T08:24:23;1.00;99.90
40808;DHT22;26523;52.504;13.498;2023-02-15T08:26:50;1.20;99.90
40808;DHT22;26523;52.504;13.498;2023-02-15T08:29:18;1.20;99.90
40808;DHT22;26523;52.504;13.498;2023-02-15T08:31:45;1.20;99.90
40808;DHT22;26523;52.504;13.498;2023-02-15T08:34:14;1.20;99.90
40808;DHT22;26523;52.504;13.498;2023-02-15T08:36:40;1.30;99.90
40808;DHT22;26523;52.504;13.498;2023-02-15T08:39:07;1.40;99.90
40808;DHT22;26523;52.504;13.498;2023-02-15T08:41:34;1.40;99.90
40808;DHT22;26523;52.504;13.498;2023-02-15T08:44:01;1.40;99.90
40808;DHT22;26523;52.504;13.498;2023-02-15T08:46:33;1.50;99.90
40808;DHT22;26523;52.504;13.498;2023-02-15T08:48:59;1.50;99.90
40808;DHT22;26523;52.504;13.498;2023-02-15T08:51:27;1.50;99.90
40808;DHT22;26523;52.504;13.498;2023-02-15T08:53:56;1.60;99.90
40808;DHT22;26523;52.504;13.498;2023-02-15T08:56:25;1.70;99.90
40808;DHT22;26523;52.504;13.498;2023-02-15T08:58:52;1.90;99.90
40808;DHT22;26523;52.504;13.498;2023-02-15T09:01:20;1.90;99.90
40808;DHT22;26523;52.504;13.498;2023-02-15T09:03:48;2.00;99.90
40808;DHT22;26523;52.504;13.498;2023-02-15T09:06:15;2.00;99.90
40808;DHT22;26523;52.504;13.498;2023-02-15T09:08:42;2.10;99.90
40808;DHT22;26523;52.504;13.498;2023-02-15T09:11:10;2.10;99.90
40808;DHT22;26523;52.504;13.498;2023-02-15T09:13:38;2.20;99.90
40808;DHT22;26523;52.504;13.498;2023-02-15T09:16:06;2.30;99.90
40808;DHT22;26523;52.504;13.498;2023-02-15T09:18:34;2.50;99.90
40808;DHT22;26523;52.504;13.498;2023-02-15T09:21:13;2.50;99.90
40808;DHT22;26523;52.504;13.498;2023-02-15T09:23:40;2.60;99.90
40808;DHT22;26523;52.504;13.498;2023-02-15T09:26:11;2.60;99.90
40808;DHT22;26523;52.504;13.498;2023-02-15T09:28:38;2.80;99.90
40808;DHT22;26523;52.504;13.498;2023-02-15T09:31:16;2.90;99.90
40808;DHT22;26523;52.504;13.498;2023-02-15T09:33:43;2.90;99.90
40808;DHT22;26523;52.504;13.498;2023-02-15T09:36:36;3.10;99.90
40808;DHT22;26523;52.504;13.498;2023-02-15T09:39:12;3.10;99.90
40808;DHT22;26523;52.504;13.498;2023-02-15T09:42:12;3.10;99.90
40808;DHT22;26523;52.504;13.498;2023-02-15T09:56:02;3.60;99.90
40808;DHT22;26523;52.504;13.498;2023-02-15T10:01:39;3.90;99.90
40808;DHT22;26523;52.504;13.498;2023-02-15T10:09:20;4.20;99.90
40808;DHT22;26523;52.504;13.498;2023-02-15T10:12:12;4.30;99.90
40808;DHT22;26523;52.504;13.498;2023-02-15T10:23:17;4.60;99.90
40808;DHT22;26523;52.504;13.498;2023-02-15T10:28:26;4.90;99.90
40808;DHT22;26523;52.504;13.498;2023-02-15T10:31:03;5.10;99.90
40808;DHT22;26523;52.504;13.498;2023-02-15T10:52:59;6.00;99.90
40808;DHT22;26523;52.504;13.498;2023-02-15T10:58:38;5.90;99.90
40808;DHT22;26523;52.504;13.498;2023-02-15T11:01:40;5.90;99.90
40808;DHT22;26523;52.504;13.498;2023-02-15T11:06:59;5.70;99.90
40808;DHT22;26523;52.504;13.498;2023-02-15T11:09:36;5.50;99.90
40808;DHT22;26523;52.504;13.498;2023-02-15T11:12:10;5.40;99.90
40808;DHT22;26523;52.504;13.498;2023-02-15T11:14:57;5.20;99.90
40808;DHT22;26523;52.504;13.498;2023-02-15T11:17:30;5.10;99.90
40808;DHT22;26523;52.504;13.498;2023-02-15T11:22:32;4.90;99.90
40808;DHT22;26523;52.504;13.498;2023-02-15T11:25:00;4.90;99.90
40808;DHT22;26523;52.504;13.498;2023-02-15T11:27:29;4.90;99.90
40808;DHT22;26523;52.504;13.498;2023-02-15T11:30:13;4.80;99.90
40808;DHT22;26523;52.504;13.498;2023-02-15T11:32:45;4.90;99.90
40808;DHT22;26523;52.504;13.498;2023-02-15T11:37:49;5.00;99.90
40808;DHT22;26523;52.504;13.498;2023-02-15T11:40:28;5.00;99.90
40808;DHT22;26523;52.504;13.498;2023-02-15T11:42:57;5.00;99.90
40808;DHT22;26523;52.504;13.498;2023-02-15T11:45:32;5.10;99.90
40808;DHT22;26523;52.504;13.498;2023-02-15T11:48:00;5.20;99.90
40808;DHT22;26523;52.504;13.498;2023-02-15T11:50:31;5.30;99.90
40808;DHT22;26523;52.504;13.498;2023-02-15T11:53:18;5.40;99.90
40808;DHT22;26523;52.504;13.498;2023-02-15T11:55:47;5.40;99.90
40808;DHT22;26523;52.504;13.498;2023-02-15T11:58:33;5.40;99.90
40808;DHT22;26523;52.504;13.498;2023-02-15T12:01:37;5.40;99.90
40808;DHT22;26523;52.504;13.498;2023-02-15T12:04:09;5.40;99.90
40808;DHT22;26523;52.504;13.498;2023-02-15T12:06:41;5.40;99.90
40808;DHT22;26523;52.504;13.498;2023-02-15T12:09:25;5.40;99.90
40808;DHT22;26523;52.504;13.498;2023-02-15T12:12:23;5.50;99.90
40808;DHT22;26523;52.504;13.498;2023-02-15T12:14:54;5.50;99.90
40808;DHT22;26523;52.504;13.498;2023-02-15T12:17:39;5.60;99.90
40808;DHT22;26523;52.504;13.498;2023-02-15T12:22:49;5.70;99.90
40808;DHT22;26523;52.504;13.498;2023-02-15T12:25:26;5.70;99.90
40808;DHT22;26523;52.504;13.498;2023-02-15T12:27:55;5.80;99.90
40808;DHT22;26523;52.504;13.498;2023-02-15T12:30:47;5.80;99.90
40808;DHT22;26523;52.504;13.498;2023-02-15T12:33:30;5.80;99.90
40808;DHT22;26523;52.504;13.498;2023-02-15T12:36:00;5.90;99.90
40808;DHT22;26523;52.504;13.498;2023-02-15T12:38:27;6.00;99.90
40808;DHT22;26523;52.504;13.498;2023-02-15T12:41:25;5.90;99.90
40808;DHT22;26523;52.504;13.498;2023-02-15T12:44:06;5.90;99.90
40808;DHT22;26523;52.504;13.498;2023-02-15T12:46:35;6.00;99.90
40808;DHT22;26523;52.504;13.498;2023-02-15T12:49:16;6.10;99.90
40808;DHT22;26523;52.504;13.498;2023-02-15T12:51:53;6.20;99.90
40808;DHT22;26523;52.504;13.498;2023-02-15T12:54:30;6.20;99.90
40808;DHT22;26523;52.504;13.498;2023-02-15T12:56:57;6.20;99.90
40808;DHT22;26523;52.504;13.498;2023-02-15T12:59:22;6.20;99.90
40808;DHT22;26523;52.504;13.498;2023-02-15T13:01:54;6.30;99.90
40808;DHT22;26523;52.504;13.498;2023-02-15T13:04:28;6.40;99.90
40808;DHT22;26523;52.504;13.498;2023-02-15T13:06:55;6.50;99.90
40808;DHT22;26523;52.504;13.498;2023-02-15T13:09:38;6.50;99.90
40808;DHT22;26523;52.504;13.498;2023-02-15T13:12:23;6.60;99.90
40808;DHT22;26523;52.504;13.498;2023-02-15T13:14:50;6.60;99.90
40808;DHT22;26523;52.504;13.498;2023-02-15T13:17:32;6.80;99.90
40808;DHT22;26523;52.504;13.498;2023-02-15T13:20:26;6.80;99.90
40808;DHT22;26523;52.504;13.498;2023-02-15T13:23:03;6.90;99.90
40808;DHT22;26523;52.504;13.498;2023-02-15T13:25:34;7.00;99.90
40808;DHT22;26523;52.504;13.498;2023-02-15T13:28:06;7.10;99.90
40808;DHT22;26523;52.504;13.498;2023-02-15T13:30:38;7.10;99.90
40808;DHT22;26523;52.504;13.498;2023-02-15T13:35:53;7.30;99.90
40808;DHT22;26523;52.504;13.498;2023-02-15T13:38:30;7.20;99.90
40808;DHT22;26523;52.504;13.498;2023-02-15T13:41:06;7.20;99.90
40808;DHT22;26523;52.504;13.498;2023-02-15T13:49:02;7.40;99.90
40808;DHT22;26523;52.504;13.498;2023-02-15T13:54:36;7.70;99.90
40808;DHT22;26523;52.504;13.498;2023-02-15T13:57:24;7.80;99.90
40808;DHT22;26523;52.504;13.498;2023-02-15T14:17:14;8.10;99.90
40808;DHT22;26523;52.504;13.498;2023-02-15T14:25:15;8.20;99.90
40808;DHT22;26523;52.504;13.498;2023-02-15T14:28:03;8.30;99.90
40808;DHT22;26523;52.504;13.498;2023-02-15T14:30:37;8.30;99.90
40808;DHT22;26523;52.504;13.498;2023-02-15T14:35:54;8.30;99.90
40808;DHT22;26523;52.504;13.498;2023-02-15T14:41:10;8.50;99.90
40808;DHT22;26523;52.504;13.498;2023-02-15T14:44:02;8.50;99.90
40808;DHT22;26523;52.504;13.498;2023-02-15T14:49:35;8.60;99.90
40808;DHT22;26523;52.504;13.498;2023-02-15T14:59:56;8.40;99.90
40808;DHT22;26523;52.504;13.498;2023-02-15T15:02:47;8.30;99.90
40808;DHT22;26523;52.504;13.498;2023-02-15T15:05:33;8.30;99.90
40808;DHT22;26523;52.504;13.498;2023-02-15T15:08:01;8.20;99.90
40808;DHT22;26523;52.504;13.498;2023-02-15T15:10:40;8.20;99.90
40808;DHT22;26523;52.504;13.498;2023-02-15T15:18:51;8.10;99.90
40808;DHT22;26523;52.504;13.498;2023-02-15T15:35:33;7.90;99.90
40808;DHT22;26523;52.504;13.498;2023-02-15T15:48:46;7.70;99.90
40808;DHT22;26523;52.504;13.498;2023-02-15T15:51:25;7.60;99.90
40808;DHT22;26523;52.504;13.498;2023-02-15T15:53:53;7.50;99.90
40808;DHT22;26523;52.504;13.498;2023-02-15T15:56:21;7.50;99.90
40808;DHT22;26523;52.504;13.498;2023-02-15T15:58:58;7.40;99.90
40808;DHT22;26523;52.504;13.498;2023-02-15T16:01:30;7.30;99.90
40808;DHT22;26523;52.504;13.498;2023-02-15T16:03:58;7.30;99.90
40808;DHT22;26523;52.504;13.498;2023-02-15T16:06:30;7.20;99.90
40808;DHT22;26523;52.504;13.498;2023-02-15T16:08:56;7.10;99.90
40808;DHT22;26523;52.504;13.498;2023-02-15T16:11:25;7.00;99.90
40808;DHT22;26523;52.504;13.498;2023-02-15T16:13:51;6.90;99.90
40808;DHT22;26523;52.504;13.498;2023-02-15T16:16:26;6.90;99.90
40808;DHT22;26523;52.504;13.498;2023-02-15T16:18:57;6.80;99.90
40808;DHT22;26523;52.504;13.498;2023-02-15T16:21:31;6.70;99.90
40808;DHT22;26523;52.504;13.498;2023-02-15T16:29:39;6.40;99.90
40808;DHT22;26523;52.504;13.498;2023-02-15T16:32:22;6.40;99.90
40808;DHT22;26523;52.504;13.498;2023-02-15T16:35:02;6.30;99.90
40808;DHT22;26523;52.504;13.498;2023-02-15T16:37:32;6.20;99.90
40808;DHT22;26523;52.504;13.498;2023-02-15T16:39:58;6.10;99.90
40808;DHT22;26523;52.504;13.498;2023-02-15T16:42:24;6.00;99.90
40808;DHT22;26523;52.504;13.498;2023-02-15T16:47:28;5.80;99.90
40808;DHT22;26523;52.504;13.498;2023-02-15T16:49:57;5.70;99.90
40808;DHT22;26523;52.504;13.498;2023-02-15T16:52:26;5.70;99.90
40808;DHT22;26523;52.504;13.498;2023-02-15T16:55:03;5.60;99.90
40808;DHT22;26523;52.504;13.498;2023-02-15T16:57:35;5.60;99.90
40808;DHT22;26523;52.504;13.498;2023-02-15T17:00:07;5.50;99.90
40808;DHT22;26523;52.504;13.498;2023-02-15T17:03:03;5.50;99.90
40808;DHT22;26523;52.504;13.498;2023-02-15T17:05:48;5.40;99.90
40808;DHT22;26523;52.504;13.498;2023-02-15T17:08:24;5.40;99.90
40808;DHT22;26523;52.504;13.498;2023-02-15T17:13:26;5.20;99.90
40808;DHT22;26523;52.504;13.498;2023-02-15T17:18:26;5.10;99.90
40808;DHT22;26523;52.504;13.498;2023-02-15T17:20:55;5.00;99.90
40808;DHT22;26523;52.504;13.498;2023-02-15T17:25:59;4.90;99.90
40808;DHT22;26523;52.504;13.498;2023-02-15T17:28:28;4.90;99.90
40808;DHT22;26523;52.504;13.498;2023-02-15T17:30:56;4.80;99.90
40808;DHT22;26523;52.504;13.498;2023-02-15T17:36:09;4.80;99.90
40808;DHT22;26523;52.504;13.498;2023-02-15T17:38:39;4.70;99.90
40808;DHT22;26523;52.504;13.498;2023-02-15T17:41:06;4.70;99.90
40808;DHT22;26523;52.504;13.498;2023-02-15T17:43:32;4.60;99.90
40808;DHT22;26523;52.504;13.498;2023-02-15T17:45:57;4.60;99.90
40808;DHT22;26523;52.504;13.498;2023-02-15T17:50:49;4.50;99.90
40808;DHT22;26523;52.504;13.498;2023-02-15T17:53:17;4.50;99.90
40808;DHT22;26523;52.504;13.498;2023-02-15T17:55:43;4.40;99.90
40808;DHT22;26523;52.504;13.498;2023-02-15T17:58:14;4.40;99.90
40808;DHT22;26523;52.504;13.498;2023-02-15T18:00:45;4.30;99.90
40808;DHT22;26523;52.504;13.498;2023-02-15T18:03:43;4.20;99.90
40808;DHT22;26523;52.504;13.498;2023-02-15T18:06:28;4.20;99.90
40808;DHT22;26523;52.504;13.498;2023-02-15T18:09:13;4.10;99.90
40808;DHT22;26523;52.504;13.498;2023-02-15T18:11:59;4.10;99.90
40808;DHT22;26523;52.504;13.498;2023-02-15T18:14:25;4.00;99.90
40808;DHT22;26523;52.504;13.498;2023-02-15T18:16:50;3.90;99.90
40808;DHT22;26523;52.504;13.498;2023-02-15T18:19:19;3.90;99.90
40808;DHT22;26523;52.504;13.498;2023-02-15T18:21:47;3.80;99.90
40808;DHT22;26523;52.504;13.498;2023-02-15T18:24:15;3.80;99.90
40808;DHT22;26523;52.504;13.498;2023-02-15T18:26:41;3.80;99.90
40808;DHT22;26523;52.504;13.498;2023-02-15T18:29:07;3.70;99.90
40808;DHT22;26523;52.504;13.498;2023-02-15T18:31:33;3.60;99.90
40808;DHT22;26523;52.504;13.498;2023-02-15T18:33:59;3.60;99.90
40808;DHT22;26523;52.504;13.498;2023-02-15T18:36:31;3.60;99.90
40808;DHT22;26523;52.504;13.498;2023-02-15T18:38:58;3.60;99.90
40808;DHT22;26523;52.504;13.498;2023-02-15T18:41:25;3.50;99.90
40808;DHT22;26523;52.504;13.498;2023-02-15T18:43:51;3.50;99.90
40808;DHT22;26523;52.504;13.498;2023-02-15T18:46:19;3.50;99.90
40808;DHT22;26523;52.504;13.498;2023-02-15T18:48:45;3.50;99.90
40808;DHT22;26523;52.504;13.498;2023-02-15T18:51:22;3.50;99.90
40808;DHT22;26523;52.504;13.498;2023-02-15T18:53:50;3.40;99.90
40808;DHT22;26523;52.504;13.498;2023-02-15T18:56:19;3.40;99.90
40808;DHT22;26523;52.504;13.498;2023-02-15T18:58:46;3.40;99.90
40808;DHT22;26523;52.504;13.498;2023-02-15T19:01:17;3.40;99.90
40808;DHT22;26523;52.504;13.498;2023-02-15T19:03:47;3.40;99.90
40808;DHT22;26523;52.504;13.498;2023-02-15T19:06:17;3.30;99.90
40808;DHT22;26523;52.504;13.498;2023-02-15T19:08:45;3.30;99.90
40808;DHT22;26523;52.504;13.498;2023-02-15T19:11:29;3.20;99.90